Time,TemperatureF,DewpointF,PressureIn,WindDirection,WindDirectionDegrees,WindSpeedMPH,WindSpeedGustMPH,Humidity,HourlyPrecipIn,Conditions,Clouds,dailyrainin,SoftwareType,DateUTC
2013-03-16 00:00:00,42.3,39.3,29.76,SW,236,0.0,4.0,89,0.00,RA,SKC,0.00,WeatherDisplay:10.37,2013-03-16 04:00:00,
2013-03-16 00:09:00,42.4,38.5,29.76,SW,230,0.0,8.0,86,0.00,CLR,SKC,0.00,WeatherDisplay:10.37,2013-03-16 04:09:00,
2013-03-16 00:19:00,42.6,39.0,29.75,SW,233,0.0,7.0,87,0.00,CLR,SKC,0.00,WeatherDisplay:10.37,2013-03-16 04:19:00,
2013-03-16 00:29:00,43.2,39.0,29.75,SW,234,0.0,0.0,85,0.00,CLR,SKC,0.00,WeatherDisplay:10.37,2013-03-16 04:29:00,
2013-03-16 00:30:00,41.9,37.7,29.75,SW,234,0.0,0.0,85,0.00,CLR,SKC,0.00,WeatherDisplay:10.37,2013-03-16 04:30:00,
2013-03-16 00:40:00,43.0,40.3,29.75,SW,219,0.0,9.0,90,0.00,CLR,SKC,0.00,WeatherDisplay:10.37,2013-03-16 04:40:00,
2013-03-16 00:50:00,43.1,38.9,29.75,SSW,201,0.0,9.0,85,0.00,CLR,SKC,0.00,WeatherDisplay:10.37,2013-03-16 04:50:00,
2013-03-16 01:00:00,42.7,39.7,29.74,SSW,203,3.0,8.0,89,0.00,CLR,SKC,0.00,WeatherDisplay:10.37,2013-03-16 05:00:00,
2013-03-16 01:10:00,41.9,38.3,29.74,SW,214,0.0,9.0,87,0.00,CLR,SKC,0.00,WeatherDisplay:10.37,2013-03-16 05:10:00,
2013-03-16 01:20:00,42.8,40.4,29.74,SW,220,0.0,9.0,91,0.00,CLR,SKC,0.00,WeatherDisplay:10.37,2013-03-16 05:20:00,
2013-03-16 01:30:00,42.8,40.4,29.73,SW,225,0.0,0.0,91,0.00,CLR,SKC,0.00,WeatherDisplay:10.37,2013-03-16 05:30:00,
2013-03-16 01:40:00,43.6,40.9,29.72,SW,225,0.0,0.0,90,0.00,CLR,SKC,0.00,WeatherDisplay:10.37,2013-03-16 05:40:00,
2013-03-16 01:50:00,42.7,39.7,29.71,SW,225,0.0,0.0,89,0.00,CLR,SKC,0.00,WeatherDisplay:10.37,2013-03-16 05:50:00,
2013-03-16 02:00:00,42.2,40.1,29.70,SW,225,0.0,0.0,92,0.00,CLR,SKC,0.00,WeatherDisplay:10.37,2013-03-16 06:00:00,
2013-03-16 02:10:00,42.4,40.2,29.69,SW,225,0.0,0.0,92,0.00,CLR,SKC,0.00,WeatherDisplay:10.37,2013-03-16 06:10:00,
2013-03-16 02:20:00,41.9,39.5,29.69,SW,225,0.0,0.0,91,0.00,CLR,SKC,0.00,WeatherDisplay:10.37,2013-03-16 06:20:00,
2013-03-16 02:30:00,41.9,39.2,29.68,SW,225,0.0,0.0,90,0.00,CLR,SKC,0.00,WeatherDisplay:10.37,2013-03-16 06:30:00,
2013-03-16 02:40:00,42.3,38.5,29.67,SW,225,0.0,0.0,86,0.00,CLR,SKC,0.00,WeatherDisplay:10.37,2013-03-16 06:40:00,
2013-03-16 02:50:00,42.7,40.0,29.67,SW,225,0.0,0.0,90,0.00,CLR,SKC,0.00,WeatherDisplay:10.37,2013-03-16 06:50:00,
2013-03-16 03:00:00,42.6,39.8,29.67,SW,225,0.0,0.0,90,0.00,CLR,SKC,0.00,WeatherDisplay:10.37,2013-03-16 07:00:00,
2013-03-16 03:10:00,42.1,39.4,29.66,SW,225,0.0,0.0,90,0.00,CLR,SKC,0.00,WeatherDisplay:10.37,2013-03-16 07:10:00,
2013-03-16 03:20:00,42.8,40.1,29.65,SW,225,0.0,0.0,90,0.00,CLR,SKC,0.00,WeatherDisplay:10.37,2013-03-16 07:20:00,
2013-03-16 03:30:00,42.5,39.8,29.65,SW,225,0.0,0.0,90,0.00,CLR,SKC,0.00,WeatherDisplay:10.37,2013-03-16 07:30:00,
2013-03-16 03:40:00,42.7,40.0,29.65,SW,225,0.0,0.0,90,0.00,CLR,SKC,0.00,WeatherDisplay:10.37,2013-03-16 07:40:00,
2013-03-16 03:50:00,43.0,40.8,29.65,SW,225,0.0,0.0,92,0.00,CLR,SKC,0.00,WeatherDisplay:10.37,2013-03-16 07:50:00,
2013-03-16 04:00:00,43.5,41.3,29.64,SW,225,0.0,0.0,92,0.00,CLR,SKC,0.00,WeatherDisplay:10.37,2013-03-16 08:00:00,
2013-03-16 04:10:00,44.0,41.8,29.65,SW,225,0.0,0.0,92,0.00,CLR,SKC,0.00,WeatherDisplay:10.37,2013-03-16 08:10:00,
2013-03-16 04:20:00,42.9,41.0,29.64,SW,225,0.0,0.0,93,0.00,CLR,SKC,0.00,WeatherDisplay:10.37,2013-03-16 08:20:00,
2013-03-16 04:30:00,42.8,40.9,29.64,SW,225,0.0,0.0,93,0.00,CLR,SKC,0.00,WeatherDisplay:10.37,2013-03-16 08:30:00,
2013-03-16 04:40:00,42.9,41.3,29.63,SW,225,0.0,0.0,94,0.00,CLR,SKC,0.00,WeatherDisplay:10.37,2013-03-16 08:40:00,
2013-03-16 04:50:00,42.2,40.9,29.63,SW,225,0.0,0.0,95,0.00,CLR,SKC,0.00,WeatherDisplay:10.37,2013-03-16 08:50:00,
2013-03-16 05:00:00,42.5,41.1,29.63,SW,225,0.0,0.0,95,0.00,CLR,SKC,0.00,WeatherDisplay:10.37,2013-03-16 09:00:00,
2013-03-16 05:10:00,41.8,40.7,29.64,SW,225,0.0,0.0,96,0.00,CLR,SKC,0.00,WeatherDisplay:10.37,2013-03-16 09:10:00,
2013-03-16 05:20:00,41.9,40.8,29.63,SW,225,0.0,0.0,96,0.00,CLR,SKC,0.00,WeatherDisplay:10.37,2013-03-16 09:20:00,
2013-03-16 05:30:00,41.7,40.7,29.62,SW,225,0.0,0.0,96,0.00,CLR,SKC,0.00,WeatherDisplay:10.37,2013-03-16 09:30:00,
2013-03-16 05:40:00,41.0,40.2,29.63,SW,225,0.0,0.0,97,0.00,CLR,SKC,0.00,WeatherDisplay:10.37,2013-03-16 09:40:00,
2013-03-16 05:50:00,41.2,40.7,29.63,SW,225,0.0,0.0,98,0.00,CLR,SKC,0.00,WeatherDisplay:10.37,2013-03-16 09:50:00,
2013-03-16 06:00:00,41.5,40.9,29.63,SW,225,0.0,0.0,98,0.00,CLR,SKC,0.00,WeatherDisplay:10.37,2013-03-16 10:00:00,
2013-03-16 06:10:00,41.2,40.7,29.63,ESE,104,0.0,9.0,98,0.00,CLR,SKC,0.00,WeatherDisplay:10.37,2013-03-16 10:10:00,
2013-03-16 06:20:00,41.4,41.1,29.63,ESE,110,0.0,10.0,99,0.00,CLR,SKC,0.00,WeatherDisplay:10.37,2013-03-16 10:20:00,
2013-03-16 06:30:00,41.0,39.9,29.63,ESE,116,3.0,8.0,96,0.00,CLR,SKC,0.00,WeatherDisplay:10.37,2013-03-16 10:30:00,
2013-03-16 06:40:00,40.9,40.9,29.62,ESE,110,0.0,10.0,100,0.00,,SKC,0.00,WeatherDisplay:10.37,2013-03-16 10:40:00,
2013-03-16 06:50:00,41.1,39.3,29.61,ESE,112,0.0,8.0,93,0.00,CLR,SKC,0.00,WeatherDisplay:10.37,2013-03-16 10:50:00,
2013-03-16 07:00:00,40.7,40.2,29.60,ESE,111,6.0,11.0,98,0.00,CLR,SKC,0.00,WeatherDisplay:10.37,2013-03-16 11:00:00,
2013-03-16 07:10:00,41.3,41.0,29.60,East,88,0.0,12.0,99,0.00,CLR,SKC,0.00,WeatherDisplay:10.37,2013-03-16 11:10:00,
2013-03-16 07:20:00,40.5,39.9,29.60,ESE,118,3.0,12.0,98,0.00,CLR,SKC,0.00,WeatherDisplay:10.37,2013-03-16 11:20:00,
2013-03-16 07:30:00,41.0,41.0,29.59,East,97,0.0,10.0,100,0.00,,SKC,0.00,WeatherDisplay:10.37,2013-03-16 11:30:00,
2013-03-16 07:40:00,41.5,41.5,29.60,East,90,1.0,10.0,100,0.00,,SKC,0.00,WeatherDisplay:10.37,2013-03-16 11:40:00,
2013-03-16 07:50:00,39.7,39.7,29.61,ESE,117,0.0,10.0,100,0.00,,SKC,0.00,WeatherDisplay:10.37,2013-03-16 11:50:00,
2013-03-16 08:00:00,40.9,40.9,29.63,ESE,117,0.0,0.0,100,0.00,,SKC,0.00,WeatherDisplay:10.37,2013-03-16 12:00:00,
2013-03-16 08:10:00,39.7,38.4,29.63,ESE,117,0.0,0.0,95,0.00,CLR,SKC,0.00,WeatherDisplay:10.37,2013-03-16 12:10:00,
2013-03-16 08:20:00,39.7,38.3,29.64,ESE,117,0.0,0.0,95,0.00,CLR,SKC,0.00,WeatherDisplay:10.37,2013-03-16 12:20:00,
2013-03-16 08:30:00,38.6,38.4,29.64,ENE,73,1.0,13.0,99,0.00,CLR,SKC,0.00,WeatherDisplay:10.37,2013-03-16 12:30:00,
2013-03-16 08:40:00,37.5,36.7,29.64,NE,53,8.0,15.0,97,0.00,CLR,SKC,0.00,WeatherDisplay:10.37,2013-03-16 12:40:00,
2013-03-16 08:50:00,37.3,36.3,29.65,ENE,64,1.0,13.0,96,0.00,CLR,SKC,0.00,WeatherDisplay:10.37,2013-03-16 12:50:00,
2013-03-16 09:00:00,36.9,35.8,29.64,ENE,75,0.0,9.0,96,0.00,CLR,SKC,0.00,WeatherDisplay:10.37,2013-03-16 13:00:00,
2013-03-16 09:10:00,36.4,36.1,29.63,East,80,5.0,12.0,99,0.00,CLR,SKC,0.00,WeatherDisplay:10.37,2013-03-16 13:10:00,
2013-03-16 09:20:00,36.6,35.6,29.63,East,85,0.0,6.0,96,0.00,CLR,SKC,0.00,WeatherDisplay:10.37,2013-03-16 13:20:00,
2013-03-16 09:30:00,36.2,34.6,29.63,ENE,74,0.0,7.0,94,0.00,CLR,SKC,0.00,WeatherDisplay:10.37,2013-03-16 13:30:00,
2013-03-16 09:40:00,35.9,35.9,29.64,ENE,69,2.0,9.0,100,0.00,,SKC,0.00,WeatherDisplay:10.37,2013-03-16 13:40:00,
2013-03-16 09:50:00,36.3,36.3,29.64,ENE,61,0.0,12.0,100,0.00,,SKC,0.00,WeatherDisplay:10.37,2013-03-16 13:50:00,
2013-03-16 10:00:00,36.7,36.7,29.64,NE,55,0.0,0.0,100,0.00,,SKC,0.00,WeatherDisplay:10.37,2013-03-16 14:00:00,
2013-03-16 10:10:00,36.2,35.5,29.63,NE,55,3.0,10.0,97,0.00,CLR,SKC,0.00,WeatherDisplay:10.37,2013-03-16 14:10:00,
2013-03-16 10:20:00,36.2,35.4,29.64,NE,42,0.0,10.0,97,0.00,CLR,SKC,0.00,WeatherDisplay:10.37,2013-03-16 14:20:00,
2013-03-16 10:30:00,36.5,36.5,29.64,East,80,0.0,10.0,100,0.00,,SKC,0.00,WeatherDisplay:10.37,2013-03-16 14:30:00,
2013-03-16 10:40:00,36.7,36.4,29.65,East,82,1.0,10.0,99,0.00,CLR,SKC,0.00,WeatherDisplay:10.37,2013-03-16 14:40:00,
2013-03-16 10:50:00,36.6,36.7,29.65,NE,37,0.0,10.0,100,0.00,,SKC,0.00,WeatherDisplay:10.37,2013-03-16 14:50:00,
2013-03-16 11:00:00,35.4,34.9,29.64,East,81,6.0,10.0,98,0.00,CLR,SKC,0.00,WeatherDisplay:10.37,2013-03-16 15:00:00,
2013-03-16 11:10:00,36.1,35.6,29.64,ENE,60,5.0,10.0,98,0.00,CLR,SKC,0.00,WeatherDisplay:10.37,2013-03-16 15:10:00,
2013-03-16 11:20:00,35.8,35.8,29.64,ENE,61,2.0,12.0,100,0.00,,SKC,0.00,WeatherDisplay:10.37,2013-03-16 15:20:00,
2013-03-16 11:30:00,36.2,35.9,29.65,NE,46,3.0,9.0,99,0.00,CLR,SKC,0.00,WeatherDisplay:10.37,2013-03-16 15:30:00,
2013-03-16 11:40:00,36.0,36.0,29.66,NNE,29,2.0,10.0,100,0.00,,SKC,0.00,WeatherDisplay:10.37,2013-03-16 15:40:00,
2013-03-16 11:50:00,35.8,35.5,29.67,NE,36,8.0,13.0,99,0.00,CLR,SKC,0.00,WeatherDisplay:10.37,2013-03-16 15:50:00,
2013-03-16 12:00:00,36.2,36.0,29.69,NE,35,8.0,16.0,99,0.00,CLR,SKC,0.00,WeatherDisplay:10.37,2013-03-16 16:00:00,
2013-03-16 12:09:00,35.9,35.6,29.69,NNE,19,8.0,13.0,99,0.00,CLR,SKC,0.00,WeatherDisplay:10.37,2013-03-16 16:09:00,
2013-03-16 12:19:00,35.7,35.5,29.70,NNE,27,3.0,15.0,99,0.00,CLR,SKC,0.00,WeatherDisplay:10.37,2013-03-16 16:19:00,
2013-03-16 12:29:00,34.6,34.3,29.71,NNE,25,7.0,18.0,99,0.00,CLR,SKC,0.00,WeatherDisplay:10.37,2013-03-16 16:29:00,
2013-03-16 12:40:00,34.5,34.3,29.72,NNE,26,8.0,15.0,99,0.00,CLR,SKC,0.00,WeatherDisplay:10.37,2013-03-16 16:40:00,
2013-03-16 12:50:00,34.7,34.7,29.72,NNE,21,5.0,12.0,100,0.00,,SKC,0.00,WeatherDisplay:10.37,2013-03-16 16:50:00,
2013-03-16 13:00:00,34.3,33.8,29.73,North,7,8.0,15.0,98,0.00,CLR,SKC,0.00,WeatherDisplay:10.37,2013-03-16 17:00:00,
2013-03-16 13:10:00,33.8,33.3,29.74,NNE,16,3.0,16.0,98,0.00,CLR,SKC,0.00,WeatherDisplay:10.37,2013-03-16 17:10:00,
2013-03-16 13:20:00,33.9,33.6,29.75,North,10,9.0,16.0,99,0.00,CLR,SKC,0.00,WeatherDisplay:10.37,2013-03-16 17:20:00,
2013-03-16 13:30:00,33.6,33.1,29.76,NNE,27,8.0,16.0,98,0.00,CLR,SKC,0.00,WeatherDisplay:10.37,2013-03-16 17:30:00,
2013-03-16 13:40:00,33.4,32.9,29.77,NNE,17,7.0,15.0,98,0.00,CLR,SKC,0.00,WeatherDisplay:10.37,2013-03-16 17:40:00,
2013-03-16 13:50:00,33.8,33.8,29.77,NNE,15,9.0,15.0,100,0.00,CLR,SKC,0.00,WeatherDisplay:10.37,2013-03-16 17:50:00,
2013-03-16 14:00:00,33.7,33.7,29.78,North,9,3.0,16.0,100,0.00,CLR,SKC,0.00,WeatherDisplay:10.37,2013-03-16 18:00:00,
2013-03-16 14:10:00,33.5,33.5,29.78,NNE,25,8.0,16.0,100,0.00,CLR,SKC,0.00,WeatherDisplay:10.37,2013-03-16 18:10:00,
2013-03-16 14:20:00,33.3,33.3,29.80,NNE,23,8.0,14.0,100,0.00,CLR,SKC,0.00,WeatherDisplay:10.37,2013-03-16 18:20:00,
2013-03-16 14:30:00,33.0,32.7,29.80,North,8,8.0,14.0,99,0.00,CLR,SKC,0.00,WeatherDisplay:10.37,2013-03-16 18:30:00,
2013-03-16 14:40:00,33.0,32.7,29.81,North,10,7.0,17.0,99,0.00,CLR,SKC,0.00,WeatherDisplay:10.37,2013-03-16 18:40:00,
2013-03-16 14:50:00,32.3,32.0,29.81,North,10,6.0,15.0,99,0.00,CLR,SKC,0.00,WeatherDisplay:10.37,2013-03-16 18:50:00,
2013-03-16 15:00:00,32.1,31.8,29.82,NNE,20,8.0,17.0,99,0.00,CLR,SKC,0.00,WeatherDisplay:10.37,2013-03-16 19:00:00,
2013-03-16 15:10:00,32.6,32.6,29.82,NNE,23,7.0,12.0,100,0.00,CLR,SKC,0.00,WeatherDisplay:10.37,2013-03-16 19:10:00,
2013-03-16 15:20:00,32.0,31.7,29.82,NNE,24,7.0,12.0,99,0.00,CLR,SKC,0.00,WeatherDisplay:10.37,2013-03-16 19:20:00,
2013-03-16 15:30:00,31.9,31.4,29.83,NNE,20,8.0,14.0,98,0.00,CLR,SKC,0.00,WeatherDisplay:10.37,2013-03-16 19:30:00,
2013-03-16 15:40:00,32.2,31.6,29.84,NNE,24,6.0,14.0,98,0.00,CLR,SKC,0.00,WeatherDisplay:10.37,2013-03-16 19:40:00,
2013-03-16 15:50:00,32.0,31.3,29.84,NE,36,6.0,12.0,97,0.00,CLR,SKC,0.00,WeatherDisplay:10.37,2013-03-16 19:50:00,
2013-03-16 16:00:00,31.8,31.3,29.85,NE,36,2.0,10.0,98,0.00,CLR,SKC,0.00,WeatherDisplay:10.37,2013-03-16 20:00:00,
2013-03-16 16:10:00,32.0,31.2,29.85,NNE,31,7.0,13.0,97,0.00,CLR,SKC,0.00,WeatherDisplay:10.37,2013-03-16 20:10:00,
2013-03-16 16:20:00,31.9,30.9,29.86,NNE,20,7.0,11.0,96,0.00,CLR,SKC,0.00,WeatherDisplay:10.37,2013-03-16 20:20:00,
2013-03-16 16:30:00,31.5,30.8,29.86,North,5,7.0,13.0,97,0.00,CLR,SKC,0.00,WeatherDisplay:10.37,2013-03-16 20:30:00,
2013-03-16 16:40:00,31.4,30.7,29.87,NNE,29,6.0,12.0,97,0.00,CLR,SKC,0.00,WeatherDisplay:10.37,2013-03-16 20:40:00,
2013-03-16 16:50:00,31.5,30.5,29.87,NNE,28,7.0,12.0,96,0.00,CLR,SKC,0.00,WeatherDisplay:10.37,2013-03-16 20:50:00,
2013-03-16 17:00:00,31.6,30.6,29.88,NNE,14,7.0,12.0,96,0.00,CLR,SKC,0.00,WeatherDisplay:10.37,2013-03-16 21:00:00,
2013-03-16 17:10:00,31.3,30.0,29.88,NNE,20,8.0,12.0,95,0.00,CLR,SKC,0.00,WeatherDisplay:10.37,2013-03-16 21:10:00,
2013-03-16 17:20:00,32.0,31.0,29.88,NNE,27,6.0,12.0,96,0.00,CLR,SKC,0.00,WeatherDisplay:10.37,2013-03-16 21:20:00,
2013-03-16 17:30:00,31.7,30.7,29.89,NE,35,6.0,12.0,96,0.00,CLR,SKC,0.00,WeatherDisplay:10.37,2013-03-16 21:30:00,
2013-03-16 17:40:00,31.4,30.4,29.89,NNE,21,5.0,9.0,96,0.00,CLR,SKC,0.00,WeatherDisplay:10.37,2013-03-16 21:40:00,
2013-03-16 17:50:00,31.6,30.3,29.90,NNE,27,2.0,9.0,95,0.00,CLR,SKC,0.00,WeatherDisplay:10.37,2013-03-16 21:50:00,
2013-03-16 18:00:00,31.3,30.3,29.90,NNE,18,1.0,7.0,96,0.00,CLR,SKC,0.00,WeatherDisplay:10.37,2013-03-16 22:00:00,
2013-03-16 18:10:00,31.8,30.3,29.91,North,349,0.0,8.0,94,0.00,CLR,SKC,0.00,WeatherDisplay:10.37,2013-03-16 22:10:00,
2013-03-16 18:20:00,32.1,30.6,29.91,NNE,19,0.0,0.0,94,0.00,CLR,SKC,0.00,WeatherDisplay:10.37,2013-03-16 22:20:00,
2013-03-16 18:30:00,32.1,30.5,29.91,NNE,28,0.0,6.0,94,0.00,CLR,SKC,0.00,WeatherDisplay:10.37,2013-03-16 22:30:00,
2013-03-16 18:40:00,31.6,29.8,29.92,NNE,25,0.0,0.0,93,0.00,CLR,SKC,0.00,WeatherDisplay:10.37,2013-03-16 22:40:00,
2013-03-16 18:50:00,32.0,30.5,29.93,North,10,5.0,7.0,94,0.00,CLR,SKC,0.00,WeatherDisplay:10.37,2013-03-16 22:50:00,
2013-03-16 19:00:00,32.4,30.9,29.93,North,359,0.0,7.0,94,0.00,CLR,SKC,0.00,WeatherDisplay:10.37,2013-03-16 23:00:00,
2013-03-16 19:10:00,31.8,30.3,29.93,North,6,5.0,9.0,94,0.00,CLR,SKC,0.00,WeatherDisplay:10.37,2013-03-16 23:10:00,
2013-03-16 19:20:00,32.3,31.0,29.93,North,349,0.0,6.0,95,0.00,CLR,SKC,0.00,WeatherDisplay:10.37,2013-03-16 23:20:00,
2013-03-16 19:30:00,31.9,30.6,29.93,North,2,0.0,3.0,95,0.00,CLR,SKC,0.00,WeatherDisplay:10.37,2013-03-16 23:30:00,
2013-03-16 19:40:00,32.0,30.5,29.94,North,2,0.0,0.0,94,0.00,CLR,SKC,0.00,WeatherDisplay:10.37,2013-03-16 23:40:00,
2013-03-16 19:50:00,31.6,30.4,29.94,NNW,346,0.0,3.0,95,0.00,CLR,SKC,0.00,WeatherDisplay:10.37,2013-03-16 23:50:00,
2013-03-16 20:00:00,32.9,31.4,29.95,NNW,333,0.0,0.0,94,0.00,CLR,SKC,0.00,WeatherDisplay:10.37,2013-03-17 00:00:00,
2013-03-16 20:10:00,32.7,31.2,29.95,NNW,342,0.0,3.0,94,0.00,CLR,SKC,0.00,WeatherDisplay:10.37,2013-03-17 00:10:00,
2013-03-16 20:20:00,32.2,30.5,29.96,North,351,0.0,0.0,93,0.00,CLR,SKC,0.00,WeatherDisplay:10.37,2013-03-17 00:20:00,
2013-03-16 20:30:00,32.3,30.0,29.96,ENE,78,0.0,10.0,91,0.00,CLR,SKC,0.00,WeatherDisplay:10.37,2013-03-17 00:30:00,
2013-03-16 20:40:00,32.2,29.6,29.96,NNE,30,0.0,7.0,90,0.00,CLR,SKC,0.00,WeatherDisplay:10.37,2013-03-17 00:40:00,
2013-03-16 20:50:00,32.8,30.5,29.96,North,349,0.0,9.0,91,0.00,CLR,SKC,0.00,WeatherDisplay:10.37,2013-03-17 00:50:00,
2013-03-16 21:00:00,32.7,30.3,29.96,NNE,15,0.0,8.0,91,0.00,CLR,SKC,0.00,WeatherDisplay:10.37,2013-03-17 01:00:00,
2013-03-16 21:10:00,32.8,30.7,29.96,NNE,25,0.0,2.0,92,0.00,CLR,SKC,0.00,WeatherDisplay:10.37,2013-03-17 01:10:00,
2013-03-16 21:20:00,32.3,30.2,29.96,NNE,25,0.0,0.0,92,0.00,CLR,SKC,0.00,WeatherDisplay:10.37,2013-03-17 01:20:00,
2013-03-16 21:30:00,32.4,30.3,29.96,NE,36,0.0,4.0,92,0.00,CLR,SKC,0.00,WeatherDisplay:10.37,2013-03-17 01:30:00,
2013-03-16 21:40:00,32.6,30.8,29.97,ENE,59,0.0,0.0,93,0.00,CLR,SKC,0.00,WeatherDisplay:10.37,2013-03-17 01:40:00,
2013-03-16 21:50:00,32.5,31.0,29.97,ENE,59,0.0,0.0,94,0.00,CLR,SKC,0.00,WeatherDisplay:10.37,2013-03-17 01:50:00,
2013-03-16 22:00:00,32.2,30.2,29.97,ENE,59,0.0,0.0,92,0.00,CLR,SKC,0.00,WeatherDisplay:10.37,2013-03-17 02:00:00,
2013-03-16 22:10:00,32.4,30.3,29.97,ENE,59,0.0,0.0,92,0.00,CLR,SKC,0.00,WeatherDisplay:10.37,2013-03-17 02:10:00,
2013-03-16 22:20:00,32.4,30.3,29.98,ENE,59,0.0,0.0,92,0.00,CLR,SKC,0.00,WeatherDisplay:10.37,2013-03-17 02:20:00,
2013-03-16 22:30:00,32.7,30.1,29.99,ENE,59,0.0,0.0,90,0.00,CLR,SKC,0.00,WeatherDisplay:10.37,2013-03-17 02:30:00,
2013-03-16 22:40:00,32.7,29.8,29.99,ENE,59,0.0,0.0,89,0.00,CLR,SKC,0.00,WeatherDisplay:10.37,2013-03-17 02:40:00,
2013-03-16 22:50:00,32.1,30.0,30.00,ENE,59,0.0,0.0,92,0.00,CLR,SKC,0.00,WeatherDisplay:10.37,2013-03-17 02:50:00,
2013-03-16 23:00:00,32.5,30.7,30.00,ENE,59,0.0,0.0,93,0.00,CLR,SKC,0.00,WeatherDisplay:10.37,2013-03-17 03:00:00,
2013-03-16 23:10:00,32.3,30.5,30.00,ENE,59,0.0,0.0,93,0.00,CLR,SKC,0.00,WeatherDisplay:10.37,2013-03-17 03:10:00,
2013-03-16 23:20:00,32.1,30.1,30.01,ENE,59,0.0,0.0,92,0.00,CLR,SKC,0.00,WeatherDisplay:10.37,2013-03-17 03:20:00,
2013-03-16 23:30:00,32.4,30.6,30.01,ENE,59,0.0,0.0,93,0.00,CLR,SKC,0.00,WeatherDisplay:10.37,2013-03-17 03:30:00,
2013-03-16 23:39:00,32.4,30.6,30.01,ENE,59,0.0,0.0,93,0.00,CLR,SKC,0.00,WeatherDisplay:10.37,2013-03-17 03:39:00,
2013-03-16 23:49:00,32.3,30.5,30.01,ENE,59,0.0,0.0,93,0.00,CLR,SKC,0.00,WeatherDisplay:10.37,2013-03-17 03:49:00,
2013-03-16 23:59:00,32.6,30.8,30.02,ENE,59,0.0,0.0,93,0.00,CLR,SKC,0.00,WeatherDisplay:10.37,2013-03-17 03:59:00,